Time,TemperatureF,DewpointF,PressureIn,WindDirection,WindDirectionDegrees,WindSpeedMPH,WindSpeedGustMPH,Humidity,HourlyPrecipIn,Conditions,Clouds,dailyrainin,SoftwareType,DateUTC
2013-03-14 00:00:00,27.3,18.0,30.54,ESE,104,1.0,1.0,69,0.00,,,0.00,weatherlink.com 1.10,2013-03-14 04:00:00,
2013-03-14 00:15:00,26.9,18.0,30.55,ENE,66,0.0,0.0,69,0.00,,,0.00,weatherlink.com 1.10,2013-03-14 04:15:00,
2013-03-14 00:30:00,26.5,18.0,30.55,ENE,70,0.0,2.0,70,0.00,,,0.00,weatherlink.com 1.10,2013-03-14 04:30:00,
2013-03-14 01:01:00,26.1,17.0,30.55,West,259,0.0,4.0,69,0.00,,,0.00,weatherlink.com 1.10,2013-03-14 05:01:00,
2013-03-14 01:31:00,25.7,16.0,30.54,SSW,211,0.0,3.0,68,0.00,,,0.00,weatherlink.com 1.10,2013-03-14 05:31:00,
2013-03-14 02:16:00,25.0,17.0,30.54,WSW,251,0.0,3.0,70,0.00,,,0.00,weatherlink.com 1.10,2013-03-14 06:16:00,
2013-03-14 02:31:00,24.8,17.0,30.55,SW,236,0.0,2.0,71,0.00,,,0.00,weatherlink.com 1.10,2013-03-14 06:31:00,
2013-03-14 03:01:00,24.6,17.0,30.56,SW,217,0.0,4.0,72,0.00,,,0.00,weatherlink.com 1.10,2013-03-14 07:01:00,
2013-03-14 03:15:00,24.4,17.0,30.57,West,262,0.0,2.0,73,0.00,,,0.00,weatherlink.com 1.10,2013-03-14 07:15:00,
2013-03-14 03:30:00,24.3,17.0,30.57,West,259,2.0,4.0,73,0.00,,,0.00,weatherlink.com 1.10,2013-03-14 07:30:00,
2013-03-14 03:45:00,24.2,17.0,30.56,NNE,32,2.0,2.0,73,0.00,,,0.00,weatherlink.com 1.10,2013-03-14 07:45:00,
2013-03-14 04:00:00,24.0,17.0,30.56,East,90,0.0,2.0,73,0.00,,,0.00,weatherlink.com 1.10,2013-03-14 08:00:00,
2013-03-14 04:15:00,23.9,16.0,30.56,SW,231,0.0,3.0,73,0.00,,,0.00,weatherlink.com 1.10,2013-03-14 08:15:00,
2013-03-14 04:30:00,23.6,16.0,30.56,ENE,65,0.0,2.0,74,0.00,,,0.00,weatherlink.com 1.10,2013-03-14 08:30:00,
2013-03-14 04:45:00,23.5,16.0,30.56,SSW,204,0.0,1.0,73,0.00,,,0.00,weatherlink.com 1.10,2013-03-14 08:45:00,
2013-03-14 05:00:00,23.4,16.0,30.57,West,263,1.0,2.0,73,0.00,,,0.00,weatherlink.com 1.10,2013-03-14 09:00:00,
2013-03-14 05:15:00,23.1,16.0,30.57,East,101,0.0,1.0,74,0.00,,,0.00,weatherlink.com 1.10,2013-03-14 09:15:00,
2013-03-14 05:30:00,22.8,16.0,30.57,ENE,62,0.0,0.0,75,0.00,,,0.00,weatherlink.com 1.10,2013-03-14 09:30:00,
2013-03-14 05:46:00,22.9,16.0,30.57,East,88,0.0,4.0,75,0.00,,,0.00,weatherlink.com 1.10,2013-03-14 09:46:00,
2013-03-14 06:01:00,22.7,17.0,30.58,ENE,73,0.0,1.0,77,0.00,,,0.00,weatherlink.com 1.10,2013-03-14 10:01:00,
2013-03-14 06:16:00,22.4,16.0,30.58,WSW,241,0.0,1.0,76,0.00,,,0.00,weatherlink.com 1.10,2013-03-14 10:16:00,
2013-03-14 06:31:00,22.0,16.0,30.59,SW,229,0.0,2.0,77,0.00,,,0.00,weatherlink.com 1.10,2013-03-14 10:31:00,
2013-03-14 06:46:00,21.8,16.0,30.59,SW,231,2.0,2.0,77,0.00,,,0.00,weatherlink.com 1.10,2013-03-14 10:46:00,
2013-03-14 07:01:00,21.7,16.0,30.60,SSW,211,1.0,3.0,78,0.00,,,0.00,weatherlink.com 1.10,2013-03-14 11:01:00,
2013-03-14 08:16:00,21.5,16.0,30.62,SW,229,0.0,2.0,80,0.00,,,0.00,weatherlink.com 1.10,2013-03-14 12:16:00,
2013-03-14 08:31:00,21.6,16.0,30.63,SW,231,3.0,4.0,80,0.00,,,0.00,weatherlink.com 1.10,2013-03-14 12:31:00,
2013-03-14 08:46:00,21.9,17.0,30.62,WSW,249,2.0,3.0,80,0.00,,,0.00,weatherlink.com 1.10,2013-03-14 12:46:00,
2013-03-14 09:01:00,22.1,17.0,30.63,SW,218,1.0,5.0,80,0.00,,,0.00,weatherlink.com 1.10,2013-03-14 13:01:00,
2013-03-14 09:16:00,22.9,17.0,30.63,SSW,203,0.0,4.0,77,0.00,,,0.00,weatherlink.com 1.10,2013-03-14 13:16:00,
2013-03-14 09:31:00,23.6,17.0,30.63,SW,226,3.0,6.0,76,0.00,,,0.00,weatherlink.com 1.10,2013-03-14 13:31:00,
2013-03-14 09:46:00,24.4,18.0,30.64,SW,233,5.0,6.0,75,0.00,,,0.00,weatherlink.com 1.10,2013-03-14 13:46:00,
2013-03-14 10:01:00,25.4,18.0,30.65,WSW,246,4.0,7.0,74,0.00,,,0.00,weatherlink.com 1.10,2013-03-14 14:01:00,
2013-03-14 10:16:00,26.5,19.0,30.65,WSW,243,6.0,8.0,73,0.00,,,0.00,weatherlink.com 1.10,2013-03-14 14:16:00,
2013-03-14 10:31:00,28.0,19.0,30.66,SW,226,6.0,7.0,69,0.00,,,0.00,weatherlink.com 1.10,2013-03-14 14:31:00,
2013-03-14 10:46:00,29.0,19.0,30.66,SW,233,6.0,6.0,66,0.00,,,0.00,weatherlink.com 1.10,2013-03-14 14:46:00,
2013-03-14 11:01:00,30.2,19.0,30.67,SW,224,2.0,9.0,63,0.00,,,0.00,weatherlink.com 1.10,2013-03-14 15:01:00,
2013-03-14 11:17:00,32.0,19.0,30.67,SW,219,2.0,8.0,58,0.00,,,0.00,weatherlink.com 1.10,2013-03-14 15:17:00,
2013-03-14 11:47:00,34.3,19.0,30.66,WSW,242,6.0,6.0,53,0.00,,,0.00,weatherlink.com 1.10,2013-03-14 15:47:00,
2013-03-14 12:02:00,35.4,19.0,30.66,SSW,212,3.0,7.0,51,0.00,,,0.00,weatherlink.com 1.10,2013-03-14 16:02:00,
2013-03-14 12:17:00,37.1,19.0,30.65,SW,226,3.0,7.0,48,0.00,,,0.00,weatherlink.com 1.10,2013-03-14 16:17:00,
2013-03-14 12:32:00,38.5,20.0,30.67,SSW,201,2.0,7.0,48,0.00,,,0.00,weatherlink.com 1.10,2013-03-14 16:32:00,
2013-03-14 12:47:00,38.9,19.0,30.67,WSW,258,7.0,9.0,44,0.00,,,0.00,weatherlink.com 1.10,2013-03-14 16:47:00,
2013-03-14 13:02:00,39.5,17.0,30.68,SSW,193,3.0,9.0,41,0.00,,,0.00,weatherlink.com 1.10,2013-03-14 17:02:00,
2013-03-14 13:17:00,40.2,17.0,30.66,SW,221,5.0,11.0,39,0.00,,,0.00,weatherlink.com 1.10,2013-03-14 17:17:00,
2013-03-14 13:32:00,41.6,18.0,30.65,WSW,239,5.0,8.0,38,0.00,,,0.00,weatherlink.com 1.10,2013-03-14 17:32:00,
2013-03-14 13:47:00,42.9,17.0,30.65,South,169,2.0,9.0,36,0.00,,,0.00,weatherlink.com 1.10,2013-03-14 17:47:00,
2013-03-14 14:02:00,43.3,18.0,30.65,West,259,6.0,10.0,37,0.00,,,0.00,weatherlink.com 1.10,2013-03-14 18:02:00,
2013-03-14 14:18:00,44.3,18.0,30.64,SW,236,5.0,6.0,35,0.00,,,0.00,weatherlink.com 1.10,2013-03-14 18:18:00,
2013-03-14 14:33:00,44.4,17.0,30.64,WSW,242,7.0,12.0,33,0.00,,,0.00,weatherlink.com 1.10,2013-03-14 18:33:00,
2013-03-14 14:48:00,44.9,18.0,30.64,WSW,238,8.0,10.0,34,0.00,,,0.00,weatherlink.com 1.10,2013-03-14 18:48:00,
2013-03-14 15:03:00,44.6,18.0,30.63,WSW,257,4.0,9.0,35,0.00,,,0.00,weatherlink.com 1.10,2013-03-14 19:03:00,
2013-03-14 15:18:00,44.9,17.0,30.63,WSW,240,6.0,10.0,33,0.00,,,0.00,weatherlink.com 1.10,2013-03-14 19:18:00,
2013-03-14 15:33:00,47.4,18.0,30.61,WSW,252,6.0,11.0,31,0.00,,,0.00,weatherlink.com 1.10,2013-03-14 19:33:00,
2013-03-14 15:48:00,49.4,18.0,30.61,WSW,242,3.0,5.0,29,0.00,,,0.00,weatherlink.com 1.10,2013-03-14 19:48:00,
2013-03-14 16:03:00,48.9,18.0,30.60,SW,229,3.0,8.0,29,0.00,,,0.00,weatherlink.com 1.10,2013-03-14 20:03:00,
2013-03-14 16:18:00,50.6,19.0,30.60,SW,223,5.0,6.0,29,0.00,,,0.00,weatherlink.com 1.10,2013-03-14 20:18:00,
2013-03-14 16:33:00,49.0,18.0,30.60,SW,229,5.0,6.0,29,0.00,,,0.00,weatherlink.com 1.10,2013-03-14 20:33:00,
2013-03-14 16:48:00,48.7,18.0,30.60,West,269,1.0,10.0,29,0.00,,,0.00,weatherlink.com 1.10,2013-03-14 20:48:00,
2013-03-14 17:03:00,47.0,16.0,30.60,WSW,245,8.0,10.0,29,0.00,,,0.00,weatherlink.com 1.10,2013-03-14 21:03:00,
2013-03-14 17:18:00,47.8,16.0,30.60,WSW,256,7.0,7.0,28,0.00,,,0.00,weatherlink.com 1.10,2013-03-14 21:18:00,
2013-03-14 17:33:00,46.5,16.0,30.59,West,260,4.0,8.0,29,0.00,,,0.00,weatherlink.com 1.10,2013-03-14 21:33:00,
2013-03-14 17:48:00,47.2,16.0,30.59,WSW,256,3.0,6.0,29,0.00,,,0.00,weatherlink.com 1.10,2013-03-14 21:48:00,
2013-03-14 18:03:00,46.6,15.0,30.58,SW,236,8.0,9.0,28,0.00,,,0.00,weatherlink.com 1.10,2013-03-14 22:03:00,
2013-03-14 18:18:00,45.6,14.0,30.59,WSW,238,6.0,11.0,28,0.00,,,0.00,weatherlink.com 1.10,2013-03-14 22:18:00,
2013-03-14 18:33:00,44.1,14.0,30.59,WSW,244,1.0,10.0,30,0.00,,,0.00,weatherlink.com 1.10,2013-03-14 22:33:00,
2013-03-14 18:48:00,43.4,14.0,30.60,West,262,0.0,5.0,30,0.00,,,0.00,weatherlink.com 1.10,2013-03-14 22:48:00,
2013-03-14 19:03:00,42.7,13.0,30.59,West,260,0.0,3.0,30,0.00,,,0.00,weatherlink.com 1.10,2013-03-14 23:03:00,
2013-03-14 19:18:00,42.1,15.0,30.59,WSW,257,0.0,4.0,33,0.00,,,0.00,weatherlink.com 1.10,2013-03-14 23:18:00,
2013-03-14 19:33:00,41.2,14.0,30.60,West,264,2.0,9.0,33,0.00,,,0.00,weatherlink.com 1.10,2013-03-14 23:33:00,
2013-03-14 19:48:00,39.9,12.0,30.59,WSW,252,1.0,5.0,32,0.00,,,0.00,weatherlink.com 1.10,2013-03-14 23:48:00,
2013-03-14 20:03:00,39.0,12.0,30.60,WSW,243,2.0,4.0,33,0.00,,,0.00,weatherlink.com 1.10,2013-03-15 00:03:00,
2013-03-14 20:18:00,38.4,11.0,30.59,West,261,3.0,6.0,33,0.00,,,0.00,weatherlink.com 1.10,2013-03-15 00:18:00,
2013-03-14 20:33:00,38.0,11.0,30.59,West,261,1.0,4.0,33,0.00,,,0.00,weatherlink.com 1.10,2013-03-15 00:33:00,
2013-03-14 20:48:00,37.5,12.0,30.60,West,262,1.0,6.0,35,0.00,,,0.00,weatherlink.com 1.10,2013-03-15 00:48:00,
2013-03-14 21:03:00,37.5,12.0,30.61,West,262,1.0,3.0,35,0.00,,,0.00,weatherlink.com 1.10,2013-03-15 01:03:00,
2013-03-14 21:18:00,37.4,13.0,30.62,WSW,246,2.0,6.0,36,0.00,,,0.00,weatherlink.com 1.10,2013-03-15 01:18:00,
2013-03-14 21:33:00,37.6,13.0,30.62,WSW,253,5.0,9.0,36,0.00,,,0.00,weatherlink.com 1.10,2013-03-15 01:33:00,
2013-03-14 21:48:00,37.6,13.0,30.63,WSW,253,1.0,4.0,36,0.00,,,0.00,weatherlink.com 1.10,2013-03-15 01:48:00,
2013-03-14 22:03:00,37.7,14.0,30.63,WSW,248,3.0,5.0,38,0.00,,,0.00,weatherlink.com 1.10,2013-03-15 02:03:00,
2013-03-14 22:18:00,37.7,14.0,30.64,WSW,257,1.0,6.0,38,0.00,,,0.00,weatherlink.com 1.10,2013-03-15 02:18:00,
2013-03-14 22:33:00,37.8,15.0,30.63,WSW,250,1.0,7.0,39,0.00,,,0.00,weatherlink.com 1.10,2013-03-15 02:33:00,
2013-03-14 22:48:00,37.7,15.0,30.62,WSW,257,0.0,5.0,40,0.00,,,0.00,weatherlink.com 1.10,2013-03-15 02:48:00,
2013-03-14 23:03:00,37.3,15.0,30.62,SSW,205,0.0,4.0,41,0.00,,,0.00,weatherlink.com 1.10,2013-03-15 03:03:00,
2013-03-14 23:18:00,36.8,16.0,30.61,WSW,256,1.0,4.0,42,0.00,,,0.00,weatherlink.com 1.10,2013-03-15 03:18:00,
2013-03-14 23:33:00,36.4,16.0,30.62,WSW,253,0.0,3.0,44,0.00,,,0.00,weatherlink.com 1.10,2013-03-15 03:33:00,
2013-03-14 23:48:00,35.9,17.0,30.62,WSW,249,1.0,4.0,46,0.00,,,0.00,weatherlink.com 1.10,2013-03-15 03:48:00,